Time;durP1;ratioP1;P1;durP2;ratioP2;P2;SDS_P1;SDS_P2;PMS_P1;PMS_P2;Temp;Humidity;BMP_temperature;BMP_pressure;BME280_temperature;BME280_humidity;BME280_pressure;Samples;Min_cycle;Max_cycle;Signal;HPM_P1;HPM_P2
2022/12/05 00:00:24;;;;;;;24.63;13.73;;;5.30;99.90;;;;;;5018835;28;20056;-85
2022/12/05 00:02:50;;;;;;;36.03;18.13;;;5.40;99.90;;;;;;4984569;28;20049;-85
2022/12/05 00:05:16;;;;;;;33.22;18.30;;;5.10;99.90;;;;;;5000718;28;20057;-85
2022/12/05 00:07:41;;;;;;;35.50;18.00;;;5.20;99.90;;;;;;5000397;28;20056;-85
2022/12/05 00:10:09;;;;;;;29.77;13.65;;;5.30;99.90;;;;;;4999557;28;20520;-85
2022/12/05 00:12:34;;;;;;;33.67;17.23;;;5.40;99.90;;;;;;4968411;28;20049;-85
2022/12/05 00:15:01;;;;;;;35.20;18.05;;;5.20;99.90;;;;;;4988327;28;20108;-84
2022/12/05 00:17:27;;;;;;;32.83;16.42;;;5.10;99.90;;;;;;5000564;28;20108;-85
2022/12/05 00:19:53;;;;;;;24.38;12.18;;;5.00;99.90;;;;;;4999219;28;20440;-84
2022/12/05 00:22:19;;;;;;;20.52;10.45;;;5.30;99.90;;;;;;4999355;28;20046;-84
2022/12/05 00:24:44;;;;;;;37.03;18.15;;;5.50;99.90;;;;;;4983345;28;20049;-85
2022/12/05 00:27:10;;;;;;;25.90;13.93;;;5.40;99.90;;;;;;4983548;28;20089;-84
2022/12/05 00:29:36;;;;;;;24.23;12.48;;;5.60;99.90;;;;;;4983007;28;20038;-85
2022/12/05 00:32:01;;;;;;;33.38;17.50;;;5.50;99.90;;;;;;4967647;28;20092;-85
2022/12/05 00:34:27;;;;;;;26.60;12.35;;;5.30;99.90;;;;;;4983158;28;20053;-86
2022/12/05 00:36:53;;;;;;;29.65;16.08;;;5.30;99.90;;;;;;4982481;28;20541;-85
2022/12/05 00:39:19;;;;;;;33.22;17.35;;;5.40;99.90;;;;;;4982570;28;20101;-85
2022/12/05 00:41:52;;;;;;;31.25;14.27;;;5.50;99.90;;;;;;5022035;28;20073;-86
2022/12/05 00:44:17;;;;;;;22.98;13.95;;;5.40;99.90;;;;;;5039319;28;20086;-86
2022/12/05 00:46:43;;;;;;;30.65;16.92;;;5.40;99.90;;;;;;5004055;28;20035;-86
2022/12/05 00:49:11;;;;;;;27.73;13.77;;;5.40;99.90;;;;;;5004419;28;20054;-85
2022/12/05 00:51:40;;;;;;;25.85;14.15;;;5.40;99.90;;;;;;4999032;28;20049;-86
2022/12/05 00:54:08;;;;;;;26.98;13.07;;;5.60;99.90;;;;;;4983111;28;20045;-85
2022/12/05 00:56:34;;;;;;;32.42;16.67;;;5.60;99.90;;;;;;4966733;28;20104;-85
2022/12/05 00:59:00;;;;;;;28.45;12.32;;;6.20;99.90;;;;;;4966598;28;20064;-85
2022/12/05 01:01:45;;;;;;;30.35;16.48;;;5.50;99.90;;;;;;4982140;28;20065;-86
2022/12/05 01:04:13;;;;;;;31.30;17.23;;;5.50;99.90;;;;;;4968275;28;20485;-85
2022/12/05 01:06:38;;;;;;;26.58;9.93;;;5.60;99.90;;;;;;4998477;28;20611;-86
2022/12/05 01:09:04;;;;;;;31.08;16.58;;;5.70;99.90;;;;;;4965744;28;20082;-86
2022/12/05 01:11:30;;;;;;;30.05;14.90;;;5.70;99.90;;;;;;4982388;28;20101;-86
2022/12/05 01:13:56;;;;;;;24.48;10.55;;;5.60;99.90;;;;;;4982455;28;20125;-85
2022/12/05 01:16:22;;;;;;;24.08;12.13;;;5.60;99.90;;;;;;4975833;28;20073;-85
2022/12/05 01:18:51;;;;;;;42.03;20.85;;;5.80;99.90;;;;;;4992335;28;20070;-86
2022/12/05 01:21:17;;;;;;;34.45;18.33;;;5.90;99.90;;;;;;5008377;28;20056;-86
2022/12/05 01:23:43;;;;;;;43.58;21.23;;;5.60;99.90;;;;;;4990435;28;20136;-85
2022/12/05 01:26:11;;;;;;;39.30;19.75;;;5.50;99.90;;;;;;5007754;28;20134;-86
2022/12/05 01:28:37;;;;;;;32.72;17.23;;;5.60;99.90;;;;;;5004244;28;20045;-86
2022/12/05 01:31:08;;;;;;;34.10;15.98;;;5.80;99.90;;;;;;5002686;28;20064;-87
2022/12/05 01:33:35;;;;;;;35.25;17.33;;;5.60;99.90;;;;;;4973215;28;20053;-86
2022/12/05 01:36:03;;;;;;;35.80;13.73;;;5.50;99.90;;;;;;4974249;28;20045;-85
2022/12/05 01:38:28;;;;;;;43.20;19.58;;;5.80;99.90;;;;;;4990057;28;20045;-85
2022/12/05 01:41:04;;;;;;;32.63;17.63;;;5.70;99.90;;;;;;4974130;28;20097;-83
2022/12/05 01:43:30;;;;;;;28.73;14.82;;;5.80;99.90;;;;;;4971291;28;20136;-83
2022/12/05 01:45:56;;;;;;;32.30;15.40;;;5.70;99.90;;;;;;4971521;28;20085;-84
2022/12/05 01:48:29;;;;;;;33.65;15.75;;;5.80;99.90;;;;;;4987825;28;20068;-84
2022/12/05 01:50:55;;;;;;;26.50;12.35;;;5.90;99.90;;;;;;4973471;28;20056;-85
2022/12/05 01:53:21;;;;;;;41.90;20.50;;;5.70;99.90;;;;;;4984348;28;20038;-84
2022/12/05 01:55:47;;;;;;;32.25;17.25;;;5.60;99.90;;;;;;5004660;28;20057;-84
2022/12/05 01:58:14;;;;;;;43.20;20.77;;;5.60;99.90;;;;;;4988396;28;20104;-85
2022/12/05 02:00:40;;;;;;;44.05;21.15;;;5.60;99.90;;;;;;5001148;28;20057;-83
2022/12/05 02:03:13;;;;;;;39.42;19.40;;;6.80;99.90;;;;;;4998556;28;20477;-85
2022/12/05 02:05:40;;;;;;;33.78;16.20;;;5.70;99.90;;;;;;4985128;28;20060;-85
2022/12/05 02:08:08;;;;;;;32.70;15.10;;;5.90;99.90;;;;;;4984435;28;20362;-85
2022/12/05 02:10:38;;;;;;;34.08;15.32;;;5.70;99.90;;;;;;4968015;28;20478;-85
2022/12/05 02:13:47;;;;;;;23.30;12.68;;;5.70;99.90;;;;;;5000291;28;20076;-84
2022/12/05 02:16:32;;;;;;;31.08;16.50;;;5.80;99.90;;;;;;5000688;28;20065;-85
2022/12/05 02:19:00;;;;;;;37.17;16.70;;;5.70;99.90;;;;;;4983662;28;20095;-85
2022/12/05 02:21:35;;;;;;;35.42;16.60;;;5.60;99.90;;;;;;4998624;28;20061;-85
2022/12/05 02:24:48;;;;;;;35.47;18.60;;;5.60;99.90;;;;;;4998718;28;20477;-85
2022/12/05 02:27:20;;;;;;;27.23;14.20;;;5.50;99.90;;;;;;4939879;28;20093;-85
2022/12/05 02:30:06;;;;;;;30.08;14.32;;;5.70;99.90;;;;;;4997842;28;20041;-84
2022/12/05 02:33:09;;;;;;;41.17;18.33;;;5.50;99.90;;;;;;5006678;28;20501;-85
2022/12/05 02:35:40;;;;;;;32.33;15.27;;;5.70;99.90;;;;;;5000278;28;20064;-84
2022/12/05 02:38:29;;;;;;;33.40;16.10;;;5.60;99.90;;;;;;5000041;28;20081;-85
2022/12/05 02:41:17;;;;;;;23.23;11.30;;;5.50;99.90;;;;;;5003869;28;20084;-86
2022/12/05 02:43:51;;;;;;;37.88;19.15;;;5.50;99.90;;;;;;4998392;28;20060;-86
2022/12/05 02:46:20;;;;;;;33.85;17.73;;;5.40;99.90;;;;;;4966610;28;20046;-85
2022/12/05 02:48:45;;;;;;;23.55;11.60;;;5.50;99.90;;;;;;4968409;28;20069;-86
2022/12/05 02:51:12;;;;;;;36.40;18.60;;;5.50;99.90;;;;;;4984996;28;20489;-86
2022/12/05 02:53:38;;;;;;;37.90;17.50;;;5.60;99.90;;;;;;4968779;28;20046;-86
2022/12/05 02:56:04;;;;;;;32.22;18.48;;;5.50;99.90;;;;;;4953019;28;20046;-86
2022/12/05 02:58:35;;;;;;;36.92;19.30;;;5.50;99.90;;;;;;4971960;28;20060;-86
2022/12/05 03:01:01;;;;;;;34.33;19.05;;;5.50;99.90;;;;;;4989076;28;20089;-85
2022/12/05 03:03:27;;;;;;;28.50;16.33;;;5.40;99.90;;;;;;5003087;28;20049;-85
2022/12/05 03:06:18;;;;;;;47.05;19.85;;;5.60;99.90;;;;;;4997006;28;20038;-85
2022/12/05 03:08:46;;;;;;;33.53;15.85;;;5.60;99.90;;;;;;4975196;28;20065;-85
2022/12/05 03:11:12;;;;;;;32.03;15.82;;;5.50;99.90;;;;;;4991101;28;20029;-86
2022/12/05 03:13:40;;;;;;;24.75;12.88;;;5.70;99.90;;;;;;4987757;28;20080;-87
2022/12/05 03:16:13;;;;;;;29.13;14.00;;;5.70;99.90;;;;;;4982373;28;20069;-85
2022/12/05 03:18:54;;;;;;;27.45;14.05;;;5.60;99.90;;;;;;5007177;28;20032;-86
2022/12/05 03:21:30;;;;;;;18.60;10.05;;;5.60;99.90;;;;;;4984641;28;20049;-87
2022/12/05 03:24:02;;;;;;;18.42;11.40;;;5.60;99.90;;;;;;4984590;28;20064;-87
2022/12/05 03:27:16;;;;;;;15.48;9.32;;;5.50;99.90;;;;;;4983785;28;20062;-86
2022/12/05 03:30:08;;;;;;;16.80;10.90;;;5.60;99.90;;;;;;4931226;28;20138;-85
2022/12/05 03:33:05;;;;;;;24.67;14.07;;;5.70;99.90;;;;;;4980830;28;20524;-87
2022/12/05 03:35:35;;;;;;;15.98;8.43;;;5.60;99.90;;;;;;5012278;28;20052;-86
2022/12/05 03:38:10;;;;;;;25.38;13.40;;;5.90;99.90;;;;;;5010526;28;20555;-85
2022/12/05 03:40:44;;;;;;;20.95;12.00;;;5.60;99.90;;;;;;4980720;28;20050;-86
2022/12/05 03:43:39;;;;;;;16.65;9.60;;;5.70;99.90;;;;;;5008115;28;20050;-86
2022/12/05 03:46:26;;;;;;;18.58;11.52;;;5.80;99.90;;;;;;4992742;28;20153;-86
2022/12/05 03:48:58;;;;;;;19.65;12.38;;;5.90;99.90;;;;;;5008086;28;20062;-86
2022/12/05 03:51:53;;;;;;;19.30;11.50;;;6.50;99.90;;;;;;4992987;28;20045;-86
2022/12/05 03:54:21;;;;;;;;;;;5.60;99.90;;;;;;4982515;28;20123;-86
2022/12/05 03:56:50;;;;;;;13.77;8.57;;;6.10;99.90;;;;;;4992487;28;20278;-85
2022/12/05 03:59:34;;;;;;;21.08;12.23;;;5.70;99.90;;;;;;4976878;28;20050;-86
2022/12/05 04:02:01;;;;;;;;;;;5.60;99.90;;;;;;4979994;28;20058;-87
2022/12/05 04:05:13;;;;;;;18.63;10.73;;;5.60;99.90;;;;;;4992443;28;19922;-85
2022/12/05 04:07:40;;;;;;;18.77;10.48;;;5.60;99.90;;;;;;5003011;28;20504;-87
2022/12/05 04:10:08;;;;;;;19.08;12.15;;;5.70;99.90;;;;;;5003433;28;20104;-87
2022/12/05 04:12:34;;;;;;;17.73;10.15;;;5.60;99.90;;;;;;4971315;28;20102;-86
2022/12/05 04:15:03;;;;;;;19.90;10.68;;;5.70;99.90;;;;;;4970794;28;20085;-86
2022/12/05 04:17:34;;;;;;;20.33;12.23;;;5.60;99.90;;;;;;4971970;28;20045;-86
2022/12/05 04:22:47;;;;;;;15.73;9.75;;;5.60;99.90;;;;;;4995602;28;20077;-85
2022/12/05 04:28:33;;;;;;;19.77;10.80;;;5.70;99.90;;;;;;4988901;28;20053;-87
2022/12/05 04:31:19;;;;;;;17.58;10.93;;;5.70;99.90;;;;;;4986314;28;20394;-86
2022/12/05 04:33:59;;;;;;;15.80;8.77;;;5.50;99.90;;;;;;4981237;28;20057;-85
2022/12/05 04:36:45;;;;;;;13.05;7.22;;;5.60;99.90;;;;;;4989081;28;20061;-85
2022/12/05 04:39:24;;;;;;;15.65;8.27;;;5.80;99.90;;;;;;4985545;28;20421;-86
2022/12/05 04:41:59;;;;;;;12.70;6.22;;;5.70;99.90;;;;;;4967969;28;20042;-86
2022/12/05 04:44:25;;;;;;;;;;;5.70;99.90;;;;;;4984857;28;20054;-86
2022/12/05 04:46:54;;;;;;;11.02;6.65;;;5.80;99.90;;;;;;5000016;28;20026;-86
2022/12/05 04:49:25;;;;;;;9.25;5.60;;;5.70;99.90;;;;;;4950551;28;20064;-86
2022/12/05 04:51:55;;;;;;;11.45;7.32;;;5.70;99.90;;;;;;4983492;28;20088;-86
2022/12/05 04:54:33;;;;;;;11.68;6.22;;;5.70;99.90;;;;;;4967547;28;20050;-86
2022/12/05 04:57:04;;;;;;;15.73;7.80;;;5.80;99.90;;;;;;4967091;28;20053;-86
2022/12/05 04:59:30;;;;;;;10.48;5.82;;;5.50;99.90;;;;;;4951101;28;20462;-85
2022/12/05 05:01:57;;;;;;;9.98;5.95;;;6.70;99.90;;;;;;4983163;28;20057;-86
2022/12/05 05:04:35;;;;;;;8.27;5.65;;;5.60;99.90;;;;;;4998817;28;20050;-85
2022/12/05 05:07:08;;;;;;;8.32;5.60;;;5.70;99.90;;;;;;4951389;28;20089;-85
2022/12/05 05:09:34;;;;;;;5.73;4.60;;;5.60;99.90;;;;;;4981901;28;20048;-85
2022/12/05 05:12:00;;;;;;;9.02;5.82;;;5.90;99.90;;;;;;4967343;28;20144;-86
2022/12/05 05:14:25;;;;;;;5.03;3.28;;;5.60;99.90;;;;;;4982542;28;20474;-84
2022/12/05 05:16:51;;;;;;;12.38;6.68;;;5.80;99.90;;;;;;5016397;28;20048;-85
2022/12/05 05:19:17;;;;;;;5.85;4.88;;;5.70;99.90;;;;;;4998051;28;20038;-85
2022/12/05 05:21:42;;;;;;;8.48;5.20;;;5.80;99.90;;;;;;4998526;28;20061;-85
2022/12/05 05:24:10;;;;;;;10.52;7.07;;;5.70;99.90;;;;;;4998173;28;20389;-86
2022/12/05 05:26:38;;;;;;;8.35;4.32;;;5.70;99.90;;;;;;4998333;28;20068;-86
2022/12/05 05:29:04;;;;;;;4.18;3.05;;;5.80;99.90;;;;;;4966074;28;20045;-86
2022/12/05 05:31:30;;;;;;;8.60;4.97;;;5.80;99.90;;;;;;4950226;28;20049;-85
2022/12/05 05:33:56;;;;;;;8.40;6.25;;;5.90;99.90;;;;;;5004875;28;20076;-85
2022/12/05 05:36:28;;;;;;;7.05;4.63;;;5.80;99.90;;;;;;5020567;28;20090;-86
2022/12/05 05:38:55;;;;;;;9.02;5.90;;;5.90;99.90;;;;;;4999832;28;20050;-86
2022/12/05 05:41:22;;;;;;;9.95;6.72;;;5.80;99.90;;;;;;4982607;28;20054;-86
2022/12/05 05:43:55;;;;;;;8.27;4.60;;;5.80;99.90;;;;;;4972073;28;20052;-86
2022/12/05 05:46:23;;;;;;;8.18;5.18;;;5.80;99.90;;;;;;4971383;28;20429;-85
2022/12/05 05:48:50;;;;;;;10.35;6.60;;;5.70;99.90;;;;;;4949703;28;20058;-85
2022/12/05 05:51:16;;;;;;;10.55;6.95;;;5.80;99.90;;;;;;5000644;28;20458;-85
2022/12/05 05:53:42;;;;;;;13.90;7.18;;;5.90;99.90;;;;;;5002743;28;20049;-85
2022/12/05 05:56:12;;;;;;;7.95;4.85;;;6.60;99.90;;;;;;4991277;28;20069;-85
2022/12/05 05:58:38;;;;;;;8.63;5.28;;;5.70;99.90;;;;;;4991595;28;20057;-85
2022/12/05 06:01:11;;;;;;;10.40;5.22;;;5.80;99.90;;;;;;5006369;28;20054;-84
2022/12/05 06:03:37;;;;;;;9.57;5.40;;;5.90;99.90;;;;;;5005667;28;20096;-84
2022/12/05 06:06:05;;;;;;;5.70;3.88;;;6.00;99.90;;;;;;4975645;28;20042;-84
2022/12/05 06:08:35;;;;;;;11.60;6.97;;;5.90;99.90;;;;;;4988907;28;20125;-84
2022/12/05 06:11:05;;;;;;;11.43;6.72;;;5.70;99.90;;;;;;4989665;28;20079;-83
2022/12/05 06:13:31;;;;;;;11.23;6.40;;;5.70;99.90;;;;;;4973466;28;20371;-85
2022/12/05 06:15:59;;;;;;;10.35;6.50;;;5.60;99.90;;;;;;4990296;28;20061;-85
2022/12/05 06:18:24;;;;;;;12.13;7.28;;;5.50;99.90;;;;;;5003945;28;20052;-86
2022/12/05 06:20:52;;;;;;;3.50;3.10;;;5.70;99.90;;;;;;5008798;28;20128;-85
2022/12/05 06:23:17;;;;;;;8.80;5.57;;;5.80;99.90;;;;;;4961726;28;20053;-84
2022/12/05 06:25:50;;;;;;;9.10;4.28;;;5.80;99.90;;;;;;5010297;28;20046;-84
2022/12/05 06:28:24;;;;;;;6.93;4.40;;;5.90;99.90;;;;;;4973579;28;20046;-85
2022/12/05 06:30:50;;;;;;;;;;;5.90;99.90;;;;;;4990300;28;20053;-85
2022/12/05 06:33:16;;;;;;;10.00;5.75;;;5.90;99.90;;;;;;4972317;28;19921;-85
2022/12/05 06:35:43;;;;;;;6.28;4.43;;;5.80;99.90;;;;;;4956452;28;20050;-84
2022/12/05 06:38:09;;;;;;;12.15;8.15;;;5.80;99.90;;;;;;5022407;28;20496;-85
2022/12/05 06:40:38;;;;;;;12.30;8.98;;;5.80;99.90;;;;;;4971907;28;20058;-85
2022/12/05 06:43:03;;;;;;;12.75;7.75;;;5.80;99.90;;;;;;4988867;28;20054;-85
2022/12/05 06:45:29;;;;;;;13.95;7.75;;;5.90;99.90;;;;;;4990757;28;20050;-85
2022/12/05 06:47:54;;;;;;;7.53;5.20;;;5.80;99.90;;;;;;5007873;28;20057;-85
2022/12/05 06:50:20;;;;;;;9.25;5.88;;;5.90;99.90;;;;;;5004959;28;20046;-85
2022/12/05 06:52:46;;;;;;;13.27;7.82;;;6.70;99.90;;;;;;5014530;28;20113;-85
2022/12/05 06:55:12;;;;;;;12.18;8.00;;;5.90;99.90;;;;;;5002666;28;20042;-85
2022/12/05 06:57:37;;;;;;;6.07;3.85;;;5.80;99.90;;;;;;4986526;28;20054;-85
2022/12/05 07:02:51;;;;;;;10.43;6.72;;;6.00;99.90;;;;;;4975641;28;20073;-83
2022/12/05 07:05:17;;;;;;;13.93;9.75;;;5.90;99.90;;;;;;4985902;28;20049;-84
2022/12/05 07:07:43;;;;;;;12.40;8.07;;;5.90;99.90;;;;;;4968739;28;20046;-85
2022/12/05 07:10:10;;;;;;;13.75;8.25;;;5.80;99.90;;;;;;4974323;28;20054;-85
2022/12/05 07:12:35;;;;;;;10.43;6.22;;;5.90;99.90;;;;;;5004445;28;20412;-86
2022/12/05 07:15:02;;;;;;;12.45;6.75;;;6.80;99.90;;;;;;4972847;28;20081;-85
2022/12/05 07:17:28;;;;;;;13.02;7.18;;;5.80;99.90;;;;;;4984631;28;20523;-87
2022/12/05 07:19:54;;;;;;;15.48;8.35;;;6.10;99.90;;;;;;5001860;28;20046;-86
2022/12/05 07:22:20;;;;;;;15.00;8.90;;;6.00;99.90;;;;;;4969375;28;20058;-87
2022/12/05 07:24:49;;;;;;;11.05;5.60;;;6.90;99.90;;;;;;4985794;28;20128;-86
2022/12/05 07:27:15;;;;;;;8.63;5.93;;;6.00;99.90;;;;;;5000976;28;20494;-86
2022/12/05 07:29:41;;;;;;;11.45;6.22;;;6.00;99.90;;;;;;4983861;28;20044;-89
2022/12/05 07:32:06;;;;;;;8.45;5.85;;;5.90;99.90;;;;;;5000567;28;20046;-88
2022/12/05 07:34:32;;;;;;;14.68;8.95;;;5.90;99.90;;;;;;4984287;28;20058;-88
2022/12/05 07:36:59;;;;;;;11.52;7.93;;;5.90;99.90;;;;;;4985052;28;20053;-93
2022/12/05 07:39:27;;;;;;;6.25;4.53;;;6.00;99.90;;;;;;4968841;28;20144;-87
2022/12/05 07:41:53;;;;;;;11.02;5.80;;;6.10;99.90;;;;;;4999509;28;20181;-86
2022/12/05 07:44:19;;;;;;;16.40;8.80;;;6.10;99.90;;;;;;5017058;28;20129;-87
2022/12/05 07:46:44;;;;;;;15.73;7.97;;;6.10;99.90;;;;;;4983249;28;20124;-87
2022/12/05 07:49:10;;;;;;;17.55;9.60;;;5.80;99.90;;;;;;4982908;28;20531;-87
2022/12/05 07:51:40;;;;;;;16.92;9.57;;;6.00;99.90;;;;;;5017240;28;20485;-86
2022/12/05 07:54:06;;;;;;;10.40;6.88;;;5.90;99.90;;;;;;5000309;28;20122;-87
2022/12/05 07:56:31;;;;;;;14.73;8.63;;;6.00;99.90;;;;;;4983752;28;20081;-86
2022/12/05 07:58:57;;;;;;;9.60;6.28;;;5.90;99.90;;;;;;4999831;28;20106;-86
2022/12/05 08:01:27;;;;;;;11.77;6.65;;;6.00;99.90;;;;;;5019627;28;20118;-87
2022/12/05 08:03:54;;;;;;;12.75;6.70;;;6.00;99.90;;;;;;5039266;28;20053;-87
2022/12/05 08:06:22;;;;;;;17.92;9.15;;;6.00;99.90;;;;;;5003019;28;20085;-90
2022/12/05 08:08:48;;;;;;;19.60;8.75;;;5.90;99.90;;;;;;4999842;28;20059;-89
2022/12/05 08:11:16;;;;;;;8.80;5.35;;;5.70;99.90;;;;;;4994571;28;20108;-86
2022/12/05 08:13:42;;;;;;;12.57;8.30;;;5.90;99.90;;;;;;4978417;28;20127;-92
2022/12/05 08:16:15;;;;;;;12.93;8.13;;;5.70;99.90;;;;;;4978433;28;20493;-90
2022/12/05 08:18:41;;;;;;;15.95;8.18;;;5.90;99.90;;;;;;4968744;28;20614;-90
2022/12/05 08:21:09;;;;;;;19.38;7.90;;;5.80;99.90;;;;;;4981558;28;20133;-89
2022/12/05 08:23:35;;;;;;;16.45;8.90;;;5.70;99.90;;;;;;5000280;28;20053;-90
2022/12/05 08:26:23;;;;;;;14.77;7.50;;;5.70;99.90;;;;;;5001238;28;20049;-92
2022/12/05 08:28:53;;;;;;;14.65;6.47;;;6.50;99.90;;;;;;5144412;23;21218;-88
2022/12/05 08:31:19;;;;;;;10.65;6.70;;;7.10;99.90;;;;;;5002457;28;20070;-93
2022/12/05 08:33:45;;;;;;;13.35;6.57;;;5.90;99.90;;;;;;4994774;28;20076;-86
2022/12/05 08:36:12;;;;;;;6.78;4.70;;;6.00;99.90;;;;;;5009047;28;20046;-92
2022/12/05 08:38:38;;;;;;;12.95;8.07;;;5.90;99.90;;;;;;5011403;28;20042;-89
2022/12/05 08:41:05;;;;;;;10.82;6.40;;;5.80;99.90;;;;;;5001058;28;20037;-87
2022/12/05 08:43:31;;;;;;;14.75;8.25;;;5.90;99.90;;;;;;5018950;28;20037;-90
2022/12/05 08:45:57;;;;;;;9.73;4.72;;;5.90;99.90;;;;;;5016060;28;20080;-90
2022/12/05 08:48:23;;;;;;;13.43;8.05;;;6.10;99.90;;;;;;5030524;28;20037;-90
2022/12/05 08:50:49;;;;;;;8.30;5.25;;;5.90;99.90;;;;;;5015546;28;20046;-89
2022/12/05 08:53:16;;;;;;;14.70;7.03;;;6.00;99.90;;;;;;5006415;28;20113;-93
2022/12/05 08:55:44;;;;;;;7.10;5.05;;;6.00;99.90;;;;;;5017732;28;20044;-91
2022/12/05 08:58:11;;;;;;;12.32;6.88;;;5.90;99.90;;;;;;4985069;28;20501;-92
2022/12/05 09:00:37;;;;;;;11.57;5.68;;;6.30;99.90;;;;;;4957599;28;20482;-89
2022/12/05 09:03:03;;;;;;;16.77;7.18;;;6.10;99.90;;;;;;4987794;28;20139;-89
2022/12/05 09:05:28;;;;;;;15.20;8.73;;;5.90;99.90;;;;;;4999716;28;20493;-86
2022/12/05 09:07:54;;;;;;;18.20;11.23;;;6.10;99.90;;;;;;5015521;28;20050;-86
2022/12/05 09:10:20;;;;;;;17.42;11.32;;;5.80;99.90;;;;;;4982613;28;20050;-87
2022/12/05 09:12:46;;;;;;;6.28;4.28;;;5.60;99.90;;;;;;4986155;28;20385;-86
2022/12/05 09:15:13;;;;;;;11.10;6.75;;;5.90;99.90;;;;;;5018329;28;20037;-85
2022/12/05 09:17:39;;;;;;;10.05;5.40;;;6.00;99.90;;;;;;5001707;28;20068;-87
2022/12/05 09:20:07;;;;;;;13.35;7.95;;;6.00;99.90;;;;;;5011408;28;20050;-85
2022/12/05 09:22:36;;;;;;;13.70;7.32;;;5.70;99.90;;;;;;4996006;28;20042;-87
2022/12/05 09:25:02;;;;;;;11.05;5.95;;;5.70;99.90;;;;;;4995481;28;20061;-87
2022/12/05 09:27:28;;;;;;;10.35;6.10;;;5.80;99.90;;;;;;4962785;28;20461;-85
2022/12/05 09:29:53;;;;;;;8.05;4.53;;;6.60;99.90;;;;;;5011881;28;20132;-87
2022/12/05 09:32:19;;;;;;;15.93;7.65;;;6.00;99.90;;;;;;4993956;28;20049;-90
2022/12/05 09:34:45;;;;;;;12.23;6.20;;;6.10;99.90;;;;;;5013829;28;20409;-86
2022/12/05 09:37:11;;;;;;;16.15;9.20;;;5.90;99.90;;;;;;5012157;28;20527;-86
2022/12/05 09:39:37;;;;;;;16.75;9.60;;;5.80;99.90;;;;;;4962453;28;20102;-90
2022/12/05 09:42:08;;;;;;;13.55;8.27;;;5.90;99.90;;;;;;4977560;28;20068;-89
2022/12/05 09:44:41;;;;;;;15.65;8.13;;;6.00;99.90;;;;;;4993333;28;20070;-84
2022/12/05 09:47:25;;;;;;;10.77;6.35;;;5.90;99.90;;;;;;5017632;28;20064;-88
2022/12/05 09:50:02;;;;;;;8.98;5.13;;;5.90;99.90;;;;;;5020196;28;20038;-87
2022/12/05 09:52:35;;;;;;;16.10;8.93;;;6.00;99.90;;;;;;4962076;28;20057;-87
2022/12/05 09:55:04;;;;;;;10.20;6.68;;;6.00;99.90;;;;;;4977845;28;20061;-87
2022/12/05 09:57:35;;;;;;;16.17;8.82;;;6.00;99.90;;;;;;4993745;28;20052;-84
2022/12/05 10:00:03;;;;;;;9.88;5.35;;;5.90;99.90;;;;;;4978137;28;20053;-92
2022/12/05 10:02:39;;;;;;;10.95;7.20;;;5.90;99.90;;;;;;4994389;28;20041;-91
2022/12/05 10:05:09;;;;;;;9.75;6.28;;;5.90;99.90;;;;;;4977294;28;20042;-89
2022/12/05 10:07:43;;;;;;;17.98;9.65;;;6.00;99.90;;;;;;4977660;28;20077;-87
2022/12/05 10:10:30;;;;;;;16.73;10.55;;;5.70;99.90;;;;;;4993237;28;20057;-88
2022/12/05 10:13:18;;;;;;;17.30;10.43;;;5.70;99.90;;;;;;4977193;28;20050;-91
2022/12/05 10:15:53;;;;;;;16.55;7.93;;;5.70;99.90;;;;;;4992112;28;20088;-89
2022/12/05 10:18:40;;;;;;;15.10;8.05;;;5.70;99.90;;;;;;4964100;28;20045;-89
2022/12/05 10:21:31;;;;;;;15.82;9.38;;;5.70;99.90;;;;;;4977527;28;20073;-92
2022/12/05 10:24:11;;;;;;;14.18;6.70;;;5.60;99.90;;;;;;4981375;28;20054;-92
2022/12/05 10:26:54;;;;;;;12.60;7.22;;;5.70;99.90;;;;;;4996100;28;20697;-90
2022/12/05 10:29:39;;;;;;;11.18;6.90;;;5.80;99.90;;;;;;4974022;28;20045;-87
2022/12/05 10:32:23;;;;;;;16.67;8.15;;;5.70;99.90;;;;;;5027102;28;20065;-85
2022/12/05 10:34:48;;;;;;;12.50;7.57;;;5.80;99.90;;;;;;5014316;28;20053;-85
2022/12/05 10:37:15;;;;;;;15.35;8.30;;;5.80;99.90;;;;;;4992782;28;20046;-87
2022/12/05 10:39:41;;;;;;;13.23;7.72;;;6.30;99.90;;;;;;5006920;28;20049;-88
2022/12/05 10:42:12;;;;;;;14.27;7.32;;;5.80;99.90;;;;;;5001685;28;20048;-87
2022/12/05 10:44:38;;;;;;;16.17;8.23;;;5.80;99.90;;;;;;4989576;28;20117;-89
2022/12/05 10:47:05;;;;;;;11.95;6.65;;;5.60;99.90;;;;;;4990610;28;20049;-85
2022/12/05 10:49:30;;;;;;;8.90;5.20;;;5.60;99.90;;;;;;5026624;28;20069;-87
2022/12/05 10:51:56;;;;;;;13.65;6.72;;;5.60;99.90;;;;;;4994666;28;20061;-85
2022/12/05 10:54:28;;;;;;;12.38;8.77;;;5.80;99.90;;;;;;4973926;28;20050;-85
2022/12/05 10:56:54;;;;;;;12.05;7.85;;;5.70;99.90;;;;;;5004367;28;20060;-87
2022/12/05 10:59:22;;;;;;;14.07;9.25;;;5.90;99.90;;;;;;4989024;28;20050;-87
2022/12/05 11:01:56;;;;;;;13.48;8.05;;;5.90;99.90;;;;;;4978088;28;20077;-89
2022/12/05 11:04:29;;;;;;;9.07;5.00;;;6.10;99.90;;;;;;4996913;28;20066;-88
2022/12/05 11:06:59;;;;;;;13.07;8.60;;;6.00;99.90;;;;;;4986333;28;20050;-92
2022/12/05 11:09:29;;;;;;;13.90;6.63;;;6.00;99.90;;;;;;4986730;28;20042;-89
2022/12/05 11:12:15;;;;;;;7.47;4.22;;;6.00;99.90;;;;;;4985375;28;20046;-90
2022/12/05 11:15:03;;;;;;;13.70;7.57;;;6.30;99.90;;;;;;4983863;28;20054;-89
2022/12/05 11:17:31;;;;;;;7.18;4.72;;;4.90;99.90;;;;;;4987729;28;20470;-89
2022/12/05 11:19:56;;;;;;;6.72;4.82;;;6.10;99.90;;;;;;5002850;28;20050;-87
2022/12/05 11:22:30;;;;;;;13.25;7.78;;;6.10;99.90;;;;;;4968590;28;20540;-91
2022/12/05 11:24:56;;;;;;;12.35;6.80;;;6.00;99.90;;;;;;4986094;28;20490;-91
2022/12/05 11:27:28;;;;;;;14.27;8.10;;;7.10;99.90;;;;;;4999492;28;20096;-87
2022/12/05 11:30:14;;;;;;;10.23;5.63;;;5.90;99.90;;;;;;4983107;28;20137;-87
2022/12/05 11:32:39;;;;;;;14.10;6.78;;;5.80;99.90;;;;;;5002715;28;20058;-86
2022/12/05 11:35:11;;;;;;;7.25;3.85;;;6.20;99.90;;;;;;5016612;28;20065;-86
2022/12/05 11:37:39;;;;;;;11.00;6.72;;;6.10;99.90;;;;;;4999959;28;20468;-86
2022/12/05 11:40:26;;;;;;;8.77;5.53;;;6.00;99.90;;;;;;5004589;28;20050;-86
2022/12/05 11:43:20;;;;;;;10.95;6.07;;;5.90;99.90;;;;;;4975544;28;20048;-87
2022/12/05 11:46:16;;;;;;;12.63;6.38;;;5.90;99.90;;;;;;5020861;28;20068;-86
2022/12/05 11:49:06;;;;;;;9.63;4.18;;;5.90;99.90;;;;;;5010283;28;20050;-87
2022/12/05 11:51:38;;;;;;;4.70;3.53;;;5.90;99.90;;;;;;5008696;28;20046;-90
2022/12/05 11:54:17;;;;;;;12.25;7.88;;;5.90;99.90;;;;;;5008656;28;20058;-89
2022/12/05 11:56:56;;;;;;;9.02;5.65;;;5.80;99.90;;;;;;4997415;28;20050;-88
2022/12/05 11:59:46;;;;;;;9.63;5.53;;;5.80;99.90;;;;;;5000039;28;20042;-90
2022/12/05 12:02:21;;;;;;;12.00;7.35;;;5.90;99.90;;;;;;4999103;28;20482;-92
2022/12/05 12:05:08;;;;;;;7.75;4.63;;;5.80;99.90;;;;;;5016939;28;20114;-89
2022/12/05 12:07:46;;;;;;;7.30;4.60;;;6.00;99.90;;;;;;4983226;28;20046;-89
2022/12/05 12:10:31;;;;;;;6.45;4.22;;;6.00;99.90;;;;;;4995496;28;20076;-87
2022/12/05 12:13:18;;;;;;;10.65;5.35;;;5.90;99.90;;;;;;4993608;28;20062;-87
2022/12/05 12:16:07;;;;;;;9.43;5.72;;;5.90;99.90;;;;;;4977001;28;20081;-85
2022/12/05 12:18:42;;;;;;;8.35;5.22;;;5.90;99.90;;;;;;4978604;28;20050;-88
2022/12/05 12:21:18;;;;;;;7.90;4.35;;;5.90;99.90;;;;;;5009420;28;20054;-88
2022/12/05 12:24:05;;;;;;;9.50;4.95;;;6.20;99.90;;;;;;4982513;28;20050;-89
2022/12/05 12:26:34;;;;;;;5.38;3.10;;;5.90;99.90;;;;;;4961041;28;20136;-92
2022/12/05 12:29:11;;;;;;;5.75;4.35;;;6.80;99.90;;;;;;4998367;28;20058;-90
2022/12/05 12:31:49;;;;;;;8.13;5.30;;;6.00;99.90;;;;;;4979820;28;20050;-91
2022/12/05 12:34:28;;;;;;;6.65;3.65;;;5.90;99.90;;;;;;4977734;28;20358;-89
2022/12/05 12:37:34;;;;;;;8.52;5.38;;;5.80;99.90;;;;;;4978044;28;20054;-91
2022/12/05 12:40:37;;;;;;;6.82;3.88;;;5.80;99.90;;;;;;4943645;28;20105;-92
2022/12/05 12:43:16;;;;;;;8.38;4.65;;;6.00;99.90;;;;;;4983080;28;20054;-91
2022/12/05 12:46:00;;;;;;;4.05;3.03;;;6.20;99.90;;;;;;4981307;28;20053;-87
2022/12/05 12:48:55;;;;;;;8.15;4.80;;;6.10;99.90;;;;;;4996919;28;20050;-90
2022/12/05 12:51:21;;;;;;;6.72;4.97;;;5.90;99.90;;;;;;4984994;28;20101;-88
2022/12/05 12:53:59;;;;;;;8.82;4.82;;;5.90;99.90;;;;;;5005487;28;20049;-87
2022/12/05 12:56:37;;;;;;;10.05;5.32;;;6.20;99.90;;;;;;5005117;28;20037;-89
2022/12/05 12:59:44;;;;;;;9.50;5.28;;;6.10;99.90;;;;;;5020645;28;20034;-87
2022/12/05 13:02:34;;;;;;;7.35;4.90;;;6.00;99.90;;;;;;5011559;28;20100;-91
2022/12/05 13:05:17;;;;;;;7.47;4.68;;;6.00;99.90;;;;;;5008861;28;20053;-90
2022/12/05 13:07:50;;;;;;;8.75;4.55;;;6.00;99.90;;;;;;4996386;28;20034;-90
2022/12/05 13:10:29;;;;;;;9.82;5.13;;;5.90;99.90;;;;;;5012265;28;20046;-91
2022/12/05 13:12:55;;;;;;;7.95;3.97;;;5.90;99.90;;;;;;4977647;28;20053;-93
2022/12/05 13:15:32;;;;;;;10.80;5.60;;;5.90;99.90;;;;;;4974895;28;20174;-93
2022/12/05 13:17:58;;;;;;;9.75;4.72;;;5.90;99.90;;;;;;5005959;28;20493;-89
2022/12/05 13:20:25;;;;;;;7.97;3.83;;;5.90;99.90;;;;;;5024752;28;20052;-89